Rose Hill, Texas
Current Conditions -  °F | °C
As of 12:17 AM on Sunday 23 Nov 2014 (Local Time) from KDWH Reporting Station
Thunderstorm Thunderstorm  
Wind Chill: 64°   Ceiling: 3500
Heat Index: 64°   Visibility: 9mi
Dew Point: 63°   Wind: 15mph
Humidity: 94%   Direction: 300°WNW
Pressure: 29.76"   Gusts: 25mph
Location:  30.0721°N, 95.6453°W
Report Text: KDWH 230617Z 30013G22KT 9SM VCTS -RA FEW008 BKN035 OVC047 18/17 A2976 RMK AO2 TSB17RAB14 P0001
Loading
Personal Weather Stations






























Interactive Weather Map New forecast layout! Learn more

10-Day Weather Forecast

Advertisements
Track Severe Weather on mobile